createdAt,value
2022-12-13T00:01:58.374Z,105.43
2022-12-13T00:04:26.620Z,105.97
2022-12-13T00:06:56.361Z,106.15
2022-12-13T00:09:24.048Z,105.88
2022-12-13T00:11:52.086Z,105.78
2022-12-13T00:14:19.085Z,105.38
2022-12-13T00:16:49.057Z,106.20
2022-12-13T00:19:17.971Z,105.55
2022-12-13T00:21:45.154Z,106.20
2022-12-13T00:24:12.881Z,105.75
2022-12-13T00:26:40.422Z,106.00
2022-12-13T00:29:09.475Z,106.10
2022-12-13T00:31:58.940Z,105.18
2022-12-13T00:34:24.575Z,106.15
2022-12-13T00:36:53.514Z,105.13
2022-12-13T00:39:20.917Z,105.55
2022-12-13T00:41:49.013Z,105.07
2022-12-13T00:44:16.539Z,105.22
2022-12-13T00:46:43.703Z,105.78
2022-12-13T00:49:13.008Z,105.60
2022-12-13T00:51:40.793Z,105.57
2022-12-13T00:54:08.506Z,105.57
2022-12-13T00:56:37.071Z,105.47
2022-12-13T00:59:04.823Z,105.07
2022-12-13T01:01:36.694Z,104.63
2022-12-13T01:04:06.901Z,104.97
2022-12-13T01:06:49.631Z,104.97
2022-12-13T01:09:27.229Z,105.38
2022-12-13T01:12:04.116Z,104.15
2022-12-13T01:14:32.181Z,104.97
2022-12-13T01:16:59.697Z,105.60
2022-12-13T01:19:28.631Z,105.03
2022-12-13T01:22:03.269Z,104.72
2022-12-13T01:24:32.465Z,104.10
2022-12-13T01:27:00.283Z,104.38
2022-12-13T01:29:28.059Z,104.78
2022-12-13T01:31:55.372Z,104.03
2022-12-13T01:34:26.491Z,104.88
2022-12-13T01:36:58.427Z,104.53
2022-12-13T01:39:27.411Z,104.57
2022-12-13T01:41:59.691Z,104.03
2022-12-13T01:45:32.966Z,104.07
2022-12-13T01:48:07.591Z,104.93
2022-12-13T01:50:43.268Z,104.03
2022-12-13T01:53:19.700Z,103.93
2022-12-13T01:55:54.924Z,104.78
2022-12-13T01:58:22.960Z,104.88
2022-12-13T02:00:50.996Z,104.82
2022-12-13T02:03:22.141Z,105.00
2022-12-13T02:06:08.117Z,104.78
2022-12-13T02:08:37.240Z,104.95
2022-12-13T02:11:06.646Z,103.72
2022-12-13T02:13:35.797Z,103.72
2022-12-13T02:16:40.665Z,105.05
2022-12-13T02:19:44.688Z,104.28
2022-12-13T02:22:56.316Z,104.03
2022-12-13T02:26:07.449Z,104.88
2022-12-13T02:29:03.591Z,104.65
2022-12-13T02:31:54.977Z,103.30
2022-12-13T02:34:55.098Z,104.38
2022-12-13T02:37:50.281Z,104.75
2022-12-13T02:40:47.189Z,104.38
2022-12-13T02:43:33.767Z,104.03
2022-12-13T02:46:04.622Z,104.53
2022-12-13T02:48:41.243Z,104.65
2022-12-13T02:51:11.957Z,104.97
2022-12-13T02:53:42.013Z,104.38
2022-12-13T02:56:09.584Z,104.57
2022-12-13T02:58:46.210Z,102.72
2022-12-13T03:01:30.421Z,104.38
2022-12-13T03:04:26.612Z,104.38
2022-12-13T03:07:19.089Z,104.65
2022-12-13T03:10:22.730Z,104.57
2022-12-13T03:13:29.175Z,104.80
2022-12-13T03:16:05.675Z,104.40
2022-12-13T03:18:34.894Z,104.40
2022-12-13T03:21:09.302Z,104.38
2022-12-13T03:23:38.063Z,104.07
2022-12-13T03:26:22.683Z,104.18
2022-12-13T03:28:50.833Z,103.88
2022-12-13T03:31:18.457Z,103.88
2022-12-13T03:33:46.526Z,104.25
2022-12-13T03:36:14.136Z,104.63
2022-12-13T03:38:41.486Z,104.40
2022-12-13T03:41:15.105Z,104.43
2022-12-13T03:43:42.941Z,104.60
2022-12-13T03:46:10.713Z,103.15
2022-12-13T03:48:37.754Z,104.25
2022-12-13T03:51:05.839Z,104.20
2022-12-13T03:53:34.576Z,103.25
2022-12-13T03:56:06.238Z,103.72
2022-12-13T03:58:37.817Z,103.05
2022-12-13T04:01:09.424Z,104.20
2022-12-13T04:03:39.062Z,103.78
2022-12-13T04:06:07.139Z,104.15
2022-12-13T04:08:36.533Z,104.15
2022-12-13T04:11:23.804Z,103.95
2022-12-13T04:13:52.044Z,103.88
2022-12-13T04:16:19.579Z,103.78
2022-12-13T04:18:46.618Z,103.97
2022-12-13T04:21:14.339Z,103.05
2022-12-13T04:23:41.337Z,103.47
2022-12-13T04:26:09.245Z,103.97
2022-12-13T04:28:36.298Z,103.97
2022-12-13T04:31:03.417Z,103.88
2022-12-13T04:33:32.534Z,103.95
2022-12-13T04:35:59.731Z,104.28
2022-12-13T04:38:26.884Z,104.63
2022-12-13T04:40:54.339Z,104.10
2022-12-13T04:43:21.320Z,104.60
2022-12-13T04:45:49.521Z,104.70
2022-12-13T04:48:30.325Z,104.50
2022-12-13T04:51:01.429Z,104.55
2022-12-13T04:53:31.763Z,104.28
2022-12-13T04:55:59.569Z,104.85
2022-12-13T04:58:27.555Z,103.63
2022-12-13T05:00:55.254Z,104.57
2022-12-13T05:03:23.299Z,104.50
2022-12-13T05:05:50.300Z,104.80
2022-12-13T05:08:17.572Z,104.43
2022-12-13T05:10:44.972Z,105.03
2022-12-13T05:13:11.895Z,105.25
2022-12-13T05:15:39.305Z,104.63
2022-12-13T05:18:10.321Z,104.28
2022-12-13T05:20:39.788Z,104.88
2022-12-13T05:23:07.331Z,105.38
2022-12-13T05:25:36.633Z,105.05
2022-12-13T05:28:08.999Z,104.45
2022-12-13T05:30:52.396Z,104.85
2022-12-13T05:33:19.915Z,105.00
2022-12-13T05:35:47.589Z,104.28
2022-12-13T05:38:14.940Z,104.80
2022-12-13T05:40:42.097Z,105.22
2022-12-13T05:43:21.732Z,104.03
2022-12-13T05:45:50.632Z,104.70
2022-12-13T05:48:24.283Z,103.97
2022-12-13T05:51:09.578Z,104.38
2022-12-13T05:53:40.933Z,105.07
2022-12-13T05:56:10.637Z,104.38
2022-12-13T05:58:40.715Z,104.30
2022-12-13T06:01:13.036Z,104.30
2022-12-13T06:03:41.652Z,104.07
2022-12-13T06:06:11.968Z,104.55
2022-12-13T06:08:39.630Z,104.03
2022-12-13T06:11:10.010Z,104.30
2022-12-13T06:13:43.516Z,104.47
2022-12-13T06:16:22.043Z,104.38
2022-12-13T06:18:57.450Z,104.03
2022-12-13T06:21:40.759Z,103.97
2022-12-13T06:24:15.270Z,104.25
2022-12-13T06:26:42.899Z,104.10
2022-12-13T06:29:24.144Z,104.15
2022-12-13T06:32:03.872Z,104.10
2022-12-13T06:34:35.664Z,104.00
2022-12-13T06:37:08.190Z,104.15
2022-12-13T06:39:35.634Z,104.00
2022-12-13T06:42:06.257Z,104.20
2022-12-13T06:44:34.935Z,104.00
2022-12-13T06:47:12.029Z,104.18
2022-12-13T06:49:44.116Z,104.07
2022-12-13T06:52:14.230Z,103.70
2022-12-13T06:54:42.796Z,104.20
2022-12-13T06:57:11.993Z,103.68
2022-12-13T06:59:39.295Z,104.00
2022-12-13T07:02:06.964Z,103.95
2022-12-13T07:04:51.642Z,103.97
2022-12-13T07:07:19.010Z,103.85
2022-12-13T07:09:46.102Z,103.50
2022-12-13T07:12:13.042Z,103.63
2022-12-13T07:14:41.461Z,103.50
2022-12-13T07:17:08.599Z,103.55
2022-12-13T07:19:36.234Z,103.75
2022-12-13T07:22:07.794Z,104.03
2022-12-13T07:24:36.088Z,103.28
2022-12-13T07:27:04.222Z,104.05
2022-12-13T07:29:31.631Z,103.75
2022-12-13T07:32:01.431Z,102.82
2022-12-13T07:34:30.421Z,103.75
2022-12-13T07:36:57.531Z,104.10
2022-12-13T07:39:26.168Z,103.78
2022-12-13T07:41:57.206Z,102.32
2022-12-13T07:44:25.246Z,102.80
2022-12-13T07:46:52.888Z,104.07
2022-12-13T07:49:20.021Z,104.28
2022-12-13T07:51:48.895Z,103.88
2022-12-13T07:54:16.041Z,103.03
2022-12-13T07:56:43.045Z,103.82
2022-12-13T07:59:11.115Z,104.07
2022-12-13T08:01:38.548Z,104.63
2022-12-13T08:04:06.112Z,103.97
2022-12-13T08:06:38.324Z,104.90
2022-12-13T08:09:05.966Z,104.50
2022-12-13T08:11:33.588Z,104.57
2022-12-13T08:14:00.616Z,105.03
2022-12-13T08:16:30.189Z,104.57
2022-12-13T08:19:03.256Z,104.88
2022-12-13T08:21:57.835Z,105.43
2022-12-13T08:24:31.065Z,105.30
2022-12-13T08:27:02.284Z,105.35
2022-12-13T08:29:35.741Z,105.38
2022-12-13T08:32:11.786Z,104.20
2022-12-13T08:34:39.715Z,105.18
2022-12-13T08:37:07.425Z,105.45
2022-12-13T08:39:37.755Z,105.43
2022-12-13T08:42:18.256Z,106.00
2022-12-13T08:44:52.512Z,105.38
2022-12-13T08:47:26.053Z,105.97
2022-12-13T08:50:02.729Z,105.57
2022-12-13T08:52:39.280Z,106.28
2022-12-13T08:55:14.042Z,106.07
2022-12-13T08:57:43.885Z,105.32
2022-12-13T09:03:46.385Z,106.82
2022-12-13T09:06:17.186Z,106.53
2022-12-13T09:08:44.816Z,107.05
2022-12-13T09:11:23.873Z,106.57
2022-12-13T09:14:04.675Z,106.93
2022-12-13T09:16:36.126Z,106.35
2022-12-13T09:19:24.765Z,107.03
2022-12-13T09:21:53.217Z,107.80
2022-12-13T09:24:36.218Z,107.82
2022-12-13T09:27:09.813Z,107.57
2022-12-13T09:29:38.597Z,107.85
2022-12-13T09:32:06.231Z,107.78
2022-12-13T09:34:33.462Z,107.53
2022-12-13T09:37:01.268Z,107.82
2022-12-13T09:39:29.478Z,107.32
2022-12-13T09:42:00.819Z,108.00
2022-12-13T09:44:49.717Z,107.93
2022-12-13T09:47:46.860Z,107.45
2022-12-13T09:50:25.222Z,108.22
2022-12-13T09:52:53.254Z,108.63
2022-12-13T09:55:46.994Z,109.18
2022-12-13T09:58:32.390Z,109.30
2022-12-13T10:01:00.048Z,111.10
2022-12-13T10:03:27.362Z,111.13
2022-12-13T10:06:23.156Z,112.70
2022-12-13T10:08:58.902Z,112.57
2022-12-13T10:11:31.376Z,113.40
2022-12-13T10:14:09.674Z,112.87
2022-12-13T10:16:37.209Z,113.07
2022-12-13T10:19:29.538Z,112.77
2022-12-13T10:22:01.968Z,114.27
2022-12-13T10:25:04.452Z,114.97
2022-12-13T10:27:47.207Z,114.80
2022-12-13T10:30:28.404Z,115.40
2022-12-13T10:33:04.807Z,115.50
2022-12-13T10:35:40.811Z,116.00
2022-12-13T10:38:07.611Z,116.47
2022-12-13T10:40:45.180Z,116.43
2022-12-13T10:43:30.148Z,116.90
2022-12-13T10:45:59.549Z,117.33
2022-12-13T10:48:51.694Z,117.30
2022-12-13T10:51:22.772Z,117.70
2022-12-13T10:53:54.620Z,117.67
2022-12-13T10:56:34.392Z,118.67
2022-12-13T10:59:32.223Z,118.03
2022-12-13T11:02:01.602Z,114.87
2022-12-13T11:04:34.948Z,117.70
2022-12-13T11:07:34.035Z,117.80
2022-12-13T11:10:37.776Z,118.63
2022-12-13T11:13:08.202Z,118.20
2022-12-13T11:15:38.347Z,117.43
2022-12-13T11:18:19.286Z,117.50
2022-12-13T11:21:03.433Z,117.77
2022-12-13T11:23:44.308Z,117.30
2022-12-13T11:26:24.629Z,117.30
2022-12-13T11:29:05.323Z,117.10
2022-12-13T11:31:50.227Z,116.77
2022-12-13T11:35:21.364Z,117.20
2022-12-13T11:38:12.235Z,117.40
2022-12-13T11:40:49.652Z,117.60
2022-12-13T11:43:38.671Z,117.40
2022-12-13T11:46:20.775Z,117.50
2022-12-13T11:49:00.452Z,117.80
2022-12-13T11:51:48.329Z,117.30
2022-12-13T11:55:00.009Z,117.53
2022-12-13T11:58:04.369Z,117.60
2022-12-13T12:00:50.960Z,118.47
2022-12-13T12:03:52.534Z,118.17
2022-12-13T12:06:29.617Z,117.80
2022-12-13T12:09:01.760Z,117.80
2022-12-13T12:12:03.533Z,117.60
2022-12-13T12:14:46.669Z,117.80
2022-12-13T12:17:19.149Z,116.90
2022-12-13T12:19:53.514Z,117.10
2022-12-13T12:23:07.172Z,117.00
2022-12-13T12:25:57.612Z,116.60
2022-12-13T12:28:46.733Z,117.23
2022-12-13T12:31:50.395Z,116.90
2022-12-13T12:35:07.189Z,117.13
2022-12-13T12:38:07.634Z,116.67
2022-12-13T12:41:39.268Z,116.80
2022-12-13T12:44:50.485Z,114.50
2022-12-13T12:48:56.886Z,116.97
2022-12-13T12:51:53.542Z,116.97
2022-12-13T12:54:51.745Z,116.80
2022-12-13T12:57:43.498Z,116.10
2022-12-13T13:00:22.001Z,115.77
2022-12-13T13:03:22.620Z,116.10
2022-12-13T13:06:35.448Z,115.80
2022-12-13T13:09:08.735Z,115.17
2022-12-13T13:11:43.362Z,115.17
2022-12-13T13:14:36.450Z,116.20
2022-12-13T13:17:25.433Z,116.10
2022-12-13T13:20:24.621Z,115.80
2022-12-13T13:23:25.188Z,115.17
2022-12-13T13:26:16.339Z,115.27
2022-12-13T13:28:42.052Z,116.77
2022-12-13T13:31:10.145Z,115.90
2022-12-13T13:33:50.878Z,116.07
2022-12-13T13:36:40.976Z,115.20
2022-12-13T13:39:52.227Z,114.10
2022-12-13T13:42:29.551Z,114.57
2022-12-13T13:45:24.368Z,115.40
2022-12-13T13:48:36.775Z,114.77
2022-12-13T13:55:14.960Z,114.27
2022-12-13T13:58:10.722Z,115.47
2022-12-13T14:01:23.276Z,115.50
2022-12-13T14:05:00.744Z,114.70
2022-12-13T14:08:01.212Z,114.37
2022-12-13T14:10:57.443Z,114.47
2022-12-13T14:14:22.467Z,114.17
2022-12-13T14:17:15.420Z,113.60
2022-12-13T14:20:13.203Z,115.03
2022-12-13T14:23:02.754Z,113.13
2022-12-13T14:26:25.222Z,115.67
2022-12-13T14:28:58.908Z,115.13
2022-12-13T14:31:43.839Z,114.63
2022-12-13T14:34:26.513Z,115.68
2022-12-13T14:37:18.471Z,113.63
2022-12-13T14:39:45.600Z,115.22
2022-12-13T14:42:34.099Z,114.65
2022-12-13T14:45:23.038Z,114.15
2022-12-13T14:47:50.192Z,114.40
2022-12-13T14:50:18.759Z,113.63
2022-12-13T14:52:48.847Z,114.93
2022-12-13T14:55:31.284Z,114.63
2022-12-13T14:58:02.415Z,114.68
2022-12-13T15:00:39.680Z,114.85
2022-12-13T15:03:07.243Z,114.88
2022-12-13T15:05:47.155Z,113.90
2022-12-13T15:08:19.780Z,114.53
2022-12-13T15:10:54.461Z,113.88
2022-12-13T15:13:52.385Z,113.45
2022-12-13T15:16:28.952Z,113.43
2022-12-13T15:19:20.749Z,112.95
2022-12-13T15:22:07.486Z,112.75
2022-12-13T15:24:48.553Z,111.70
2022-12-13T15:27:24.162Z,112.97
2022-12-13T15:29:54.060Z,111.65
2022-12-13T15:32:25.040Z,112.57
2022-12-13T15:34:52.486Z,112.38
2022-12-13T15:37:31.189Z,112.78
2022-12-13T15:40:07.900Z,112.60
2022-12-13T15:42:39.042Z,112.43
2022-12-13T15:45:21.533Z,112.53
2022-12-13T15:47:50.385Z,112.25
2022-12-13T15:50:37.621Z,112.28
2022-12-13T15:53:24.434Z,111.93
2022-12-13T15:55:51.708Z,111.97
2022-12-13T15:58:36.056Z,111.13
2022-12-13T16:01:05.436Z,111.72
2022-12-13T16:03:47.128Z,111.88
2022-12-13T16:06:23.590Z,111.78
2022-12-13T16:08:54.994Z,111.78
2022-12-13T16:11:33.614Z,111.10
2022-12-13T16:14:31.766Z,111.18
2022-12-13T16:17:15.141Z,111.43
2022-12-13T16:19:42.494Z,111.32
2022-12-13T16:22:09.487Z,110.65
2022-12-13T16:24:39.394Z,111.47
2022-12-13T16:27:08.537Z,110.55
2022-12-13T16:29:36.323Z,110.93
2022-12-13T16:32:08.592Z,111.43
2022-12-13T16:34:38.056Z,110.38
2022-12-13T16:37:09.045Z,111.00
2022-12-13T16:39:53.344Z,110.78
2022-12-13T16:42:20.391Z,111.15
2022-12-13T16:44:48.048Z,110.43
2022-12-13T16:47:24.820Z,111.07
2022-12-13T16:49:57.619Z,110.32
2022-12-13T16:52:24.530Z,109.43
2022-12-13T16:54:52.659Z,110.85
2022-12-13T16:57:20.014Z,110.13
2022-12-13T16:59:46.976Z,111.25
2022-12-13T17:02:17.954Z,110.82
2022-12-13T17:04:45.095Z,110.93
2022-12-13T17:07:12.963Z,110.28
2022-12-13T17:09:41.928Z,110.85
2022-12-13T17:12:09.347Z,110.30
2022-12-13T17:14:36.897Z,110.60
2022-12-13T17:17:04.431Z,110.93
2022-12-13T17:19:31.472Z,110.47
2022-12-13T17:21:58.832Z,110.78
2022-12-13T17:24:25.859Z,110.63
2022-12-13T17:26:56.379Z,110.63
2022-12-13T17:29:24.842Z,110.55
2022-12-13T17:31:53.014Z,110.43
2022-12-13T17:34:20.282Z,111.18
2022-12-13T17:36:47.390Z,110.53
2022-12-13T17:39:14.777Z,110.63
2022-12-13T17:41:41.744Z,110.88
2022-12-13T17:44:08.810Z,110.43
2022-12-13T17:46:36.260Z,110.72
2022-12-13T17:49:03.460Z,110.78
2022-12-13T17:51:30.847Z,111.13
2022-12-13T17:53:57.885Z,110.88
2022-12-13T17:56:25.329Z,109.03
2022-12-13T17:58:52.308Z,109.35
2022-12-13T18:01:23.669Z,109.97
2022-12-13T18:03:55.469Z,109.65
2022-12-13T18:06:26.994Z,110.38
2022-12-13T18:08:54.170Z,109.60
2022-12-13T18:11:37.357Z,109.50
2022-12-13T18:14:07.113Z,109.43
2022-12-13T18:16:38.246Z,109.43
2022-12-13T18:19:12.050Z,109.88
2022-12-13T18:21:39.789Z,109.57
2022-12-13T18:24:07.659Z,109.03
2022-12-13T18:26:35.272Z,108.82
2022-12-13T18:29:04.446Z,109.47
2022-12-13T18:31:32.003Z,109.10
2022-12-13T18:34:00.585Z,109.47
2022-12-13T18:36:28.107Z,109.22
2022-12-13T18:38:55.564Z,109.78
2022-12-13T18:41:28.113Z,109.60
2022-12-13T18:44:05.341Z,109.72
2022-12-13T18:46:35.644Z,109.28
2022-12-13T18:49:05.056Z,109.88
2022-12-13T18:51:32.783Z,109.78
2022-12-13T18:54:00.179Z,108.40
2022-12-13T18:56:28.145Z,109.15
2022-12-13T18:58:56.513Z,108.43
2022-12-13T19:01:26.916Z,109.53
2022-12-13T19:03:54.847Z,110.07
2022-12-13T19:06:26.457Z,109.97
2022-12-13T19:08:57.815Z,110.28
2022-12-13T19:11:27.779Z,109.75
2022-12-13T19:13:55.874Z,109.97
2022-12-13T19:16:25.456Z,110.28
2022-12-13T19:18:53.220Z,109.72
2022-12-13T19:21:22.364Z,110.38
2022-12-13T19:23:57.020Z,110.47
2022-12-13T19:26:28.770Z,110.47
2022-12-13T19:28:58.499Z,110.32
2022-12-13T19:31:31.172Z,110.47
2022-12-13T19:34:01.887Z,110.78
2022-12-13T19:36:31.586Z,110.28
2022-12-13T19:38:59.052Z,110.32
2022-12-13T19:41:26.423Z,110.47
2022-12-13T19:43:54.090Z,110.38
2022-12-13T19:46:21.865Z,109.82
2022-12-13T19:48:49.450Z,110.13
2022-12-13T19:51:16.600Z,110.38
2022-12-13T19:53:44.426Z,109.78
2022-12-13T19:56:17.353Z,109.78
2022-12-13T19:58:46.988Z,109.50
2022-12-13T20:01:14.848Z,110.22
2022-12-13T20:03:45.527Z,109.53
2022-12-13T20:06:22.506Z,110.60
2022-12-13T20:08:50.819Z,110.03
2022-12-13T20:11:22.859Z,109.78
2022-12-13T20:13:54.664Z,110.50
2022-12-13T20:16:26.919Z,109.28
2022-12-13T20:18:58.417Z,110.22
2022-12-13T20:21:27.684Z,110.07
2022-12-13T20:23:55.660Z,109.88
2022-12-13T20:26:27.615Z,110.30
2022-12-13T20:28:55.663Z,109.63
2022-12-13T20:31:33.224Z,110.18
2022-12-13T20:34:04.574Z,109.82
2022-12-13T20:36:32.688Z,109.72
2022-12-13T20:39:03.472Z,109.13
2022-12-13T20:41:34.233Z,110.28
2022-12-13T20:44:04.332Z,109.53
2022-12-13T20:46:31.792Z,109.53
2022-12-13T20:49:03.065Z,110.18
2022-12-13T20:51:33.250Z,109.68
2022-12-13T20:54:00.968Z,110.18
2022-12-13T20:56:37.356Z,109.95
2022-12-13T20:59:12.606Z,110.32
2022-12-13T21:01:41.807Z,109.97
2022-12-13T21:04:10.669Z,110.20
2022-12-13T21:06:41.416Z,110.18
2022-12-13T21:09:11.084Z,109.45
2022-12-13T21:11:47.025Z,110.28
2022-12-13T21:14:28.414Z,109.10
2022-12-13T21:16:59.824Z,108.20
2022-12-13T21:19:39.101Z,109.57
2022-12-13T21:22:06.800Z,110.20
2022-12-13T21:24:34.206Z,109.93
2022-12-13T21:27:01.393Z,110.05
2022-12-13T21:29:28.361Z,109.78
2022-12-13T21:31:55.891Z,108.57
2022-12-13T21:34:23.489Z,109.57
2022-12-13T21:36:52.852Z,109.53
2022-12-13T21:39:29.177Z,109.38
2022-12-13T21:41:56.790Z,109.50
2022-12-13T21:44:23.853Z,109.38
2022-12-13T21:49:38.995Z,109.38
2022-12-13T21:52:06.160Z,109.18
2022-12-13T21:54:33.682Z,109.75
2022-12-13T21:57:19.807Z,109.18
2022-12-13T21:59:47.269Z,109.68
2022-12-13T22:02:18.176Z,109.38
2022-12-13T22:04:53.305Z,109.47
2022-12-13T22:07:28.542Z,109.63
2022-12-13T22:09:58.078Z,110.00
2022-12-13T22:12:41.392Z,108.13
2022-12-13T22:15:15.378Z,109.90
2022-12-13T22:17:43.208Z,109.78
2022-12-13T22:20:15.173Z,109.28
2022-12-13T22:22:45.260Z,109.82
2022-12-13T22:25:12.242Z,108.65
2022-12-13T22:27:39.238Z,109.63
2022-12-13T22:30:07.622Z,109.22
2022-12-13T22:32:35.132Z,109.88
2022-12-13T22:35:02.160Z,109.78
2022-12-13T22:37:29.531Z,109.88
2022-12-13T22:39:56.475Z,109.13
2022-12-13T22:42:23.398Z,109.80
2022-12-13T22:44:50.841Z,109.85
2022-12-13T22:47:18.274Z,109.57
2022-12-13T22:49:45.186Z,109.65
2022-12-13T22:52:16.694Z,109.57
2022-12-13T22:54:43.863Z,109.68
2022-12-13T22:57:11.330Z,109.70
2022-12-13T22:59:38.967Z,109.88
2022-12-13T23:02:06.499Z,109.97
2022-12-13T23:04:33.570Z,110.05
2022-12-13T23:07:01.031Z,109.43
2022-12-13T23:09:27.972Z,110.18
2022-12-13T23:12:13.614Z,109.03
2022-12-13T23:14:41.251Z,108.88
2022-12-13T23:17:08.414Z,109.57
2022-12-13T23:19:49.559Z,108.63
2022-12-13T23:22:23.479Z,109.28
2022-12-13T23:24:52.198Z,109.40
2022-12-13T23:27:22.213Z,109.38
2022-12-13T23:29:50.033Z,109.43
2022-12-13T23:32:18.336Z,110.15
2022-12-13T23:34:45.759Z,109.57
2022-12-13T23:37:13.060Z,109.28
2022-12-13T23:39:41.340Z,109.47
2022-12-13T23:42:08.284Z,110.22
2022-12-13T23:44:35.827Z,109.57
2022-12-13T23:47:03.192Z,109.47
2022-12-13T23:49:30.142Z,108.72
2022-12-13T23:51:57.100Z,109.95
2022-12-13T23:54:24.256Z,109.95
2022-12-13T23:56:51.179Z,109.75
2022-12-13T23:59:18.845Z,109.63
